aviador You're here:

OKBK Decoded Metar

KUWAIT in KUWAIT
Report Time2017-11-21 02:00:00
UTC Time2017-11-21 02:32:54
Flight Rules vfr VFR
WindCalm
Visibility9999 m
Phenomena:Light Rain
Clouds:Few 040 Hf
Broken 080 Hf
Expected CloudBase > 4,000 ft AGL from Temp-Dew spread
Ceiling8,000 ft
Temp23°C (ISA +8)
Dew Point13°C (53% RH)
QNH1014 hPa
Density Alt1,319 ft
Elevation180 ft
Report Wrong Elevation
Raw Report
METAR OKBK 210200Z 00000KT 9999 -RA FEW040 BKN080 23/13 Q1014 NOSIG=####018000074####
SAMP31 LMMM 210200 RRA

Extra information for OKBK:More info

Metar Taf Metar & Taf Last 4 Metars F.Rules Stats Wind Profile Meteogram Temp Stats Airport Information Weather charts Add Link Nearby VenuesMetar ALERT Operation Metar Decoded Social comments